Time;durP1;ratioP1;P1;durP2;ratioP2;P2;SDS_P1;SDS_P2;PMS_P1;PMS_P2;Temp;Humidity;BMP_temperature;BMP_pressure;BME280_temperature;BME280_humidity;BME280_pressure;Samples;Min_cycle;Max_cycle;Signal;HPM_P1;HPM_P2
2023/06/03 00:00:15;;;;;;;5.38;2.47;;;;;;;;;;5056291;28;20207;-64
2023/06/03 00:02:42;;;;;;;6.20;2.70;;;;;;;;;;5055364;28;20207;-64
2023/06/03 00:05:09;;;;;;;4.63;2.50;;;;;;;;;;5051019;28;20227;-64
2023/06/03 00:07:38;;;;;;;4.55;2.38;;;;;;;;;;5055173;28;20202;-64
2023/06/03 00:10:05;;;;;;;5.18;2.40;;;;;;;;;;5055601;28;20200;-64
2023/06/03 00:12:33;;;;;;;6.70;3.03;;;;;;;;;;5053774;28;20238;-63
2023/06/03 00:15:00;;;;;;;5.95;2.70;;;;;;;;;;5061266;28;20205;-64
2023/06/03 00:17:27;;;;;;;5.07;2.72;;;;;;;;;;5052436;28;20199;-64
2023/06/03 00:19:55;;;;;;;5.05;2.60;;;;;;;;;;5052503;28;20211;-64
2023/06/03 00:22:23;;;;;;;4.07;2.53;;;;;;;;;;5059237;28;20207;-64
2023/06/03 00:24:51;;;;;;;8.32;2.85;;;;;;;;;;5058330;28;20195;-64
2023/06/03 00:27:19;;;;;;;5.60;2.70;;;;;;;;;;5057063;28;20203;-64
2023/06/03 00:29:46;;;;;;;4.80;2.20;;;;;;;;;;5052801;28;20214;-64
2023/06/03 00:32:13;;;;;;;6.43;2.67;;;;;;;;;;5048617;28;20200;-64
2023/06/03 00:34:40;;;;;;;5.68;2.45;;;;;;;;;;5053394;28;20199;-64
2023/06/03 00:37:07;;;;;;;4.53;2.53;;;;;;;;;;5061505;28;20199;-64
2023/06/03 00:39:34;;;;;;;5.45;2.42;;;;;;;;;;5057891;28;20200;-64
2023/06/03 00:42:03;;;;;;;2.92;2.30;;;;;;;;;;5062394;28;20217;-64
2023/06/03 00:44:30;;;;;;;5.70;2.50;;;;;;;;;;5054795;28;20233;-64
2023/06/03 00:46:57;;;;;;;5.28;2.38;;;;;;;;;;5059688;28;20219;-64
2023/06/03 00:49:24;;;;;;;5.47;2.40;;;;;;;;;;5054530;28;20208;-63
2023/06/03 00:51:51;;;;;;;7.00;2.33;;;;;;;;;;5054136;28;20203;-63
2023/06/03 00:54:19;;;;;;;5.75;2.40;;;;;;;;;;5049243;28;20219;-63
2023/06/03 00:56:46;;;;;;;4.45;2.60;;;;;;;;;;5053789;28;20208;-63
2023/06/03 00:59:16;;;;;;;3.80;2.10;;;;;;;;;;5057531;28;20203;-63
2023/06/03 01:01:44;;;;;;;8.52;2.67;;;;;;;;;;5056246;28;20196;-63
2023/06/03 01:04:11;;;;;;;3.80;2.17;;;;;;;;;;5053505;28;20204;-63
2023/06/03 01:06:45;;;;;;;5.25;2.70;;;;;;;;;;5053149;28;20227;-64
2023/06/03 01:09:16;;;;;;;6.05;2.55;;;;;;;;;;5055235;28;20218;-63
2023/06/03 01:11:46;;;;;;;7.13;2.30;;;;;;;;;;5055258;28;20235;-64
2023/06/03 01:14:16;;;;;;;4.13;2.22;;;;;;;;;;5056240;28;20204;-63
2023/06/03 01:16:47;;;;;;;5.07;2.50;;;;;;;;;;5050599;28;20203;-63
2023/06/03 01:19:26;;;;;;;7.03;2.30;;;;;;;;;;5055926;22;20247;-90
2023/06/03 01:22:00;;;;;;;5.80;2.50;;;;;;;;;;5044987;28;20203;-90
2023/06/03 01:24:30;;;;;;;4.15;2.10;;;;;;;;;;5049082;28;20207;-90
2023/06/03 01:26:58;;;;;;;4.43;2.10;;;;;;;;;;5050629;28;20227;-90
2023/06/03 01:29:25;;;;;;;4.90;2.33;;;;;;;;;;5049261;28;20204;-89
2023/06/03 01:31:53;;;;;;;5.70;2.55;;;;;;;;;;5053922;28;20215;-90
2023/06/03 01:34:20;;;;;;;6.03;2.60;;;;;;;;;;5049420;28;20199;-89
2023/06/03 01:36:47;;;;;;;5.57;2.63;;;;;;;;;;5048527;28;20210;-90
2023/06/03 01:39:15;;;;;;;6.97;2.30;;;;;;;;;;5043588;28;20210;-89
2023/06/03 01:41:44;;;;;;;3.13;2.20;;;;;;;;;;5051304;28;20199;-90
2023/06/03 01:44:11;;;;;;;7.18;2.30;;;;;;;;;;5053076;28;20226;-90
2023/06/03 01:46:39;;;;;;;4.68;2.40;;;;;;;;;;5052832;28;20285;-90
2023/06/03 01:49:08;;;;;;;5.80;2.40;;;;;;;;;;5047250;28;20199;-89
2023/06/03 01:51:35;;;;;;;9.75;2.65;;;;;;;;;;5045019;28;20200;-89
2023/06/03 01:54:03;;;;;;;5.55;2.55;;;;;;;;;;5039889;28;20208;-90
2023/06/03 01:56:30;;;;;;;4.60;2.30;;;;;;;;;;5041224;28;20211;-89
2023/06/03 01:58:59;;;;;;;5.47;2.38;;;;;;;;;;5042923;28;20334;-90
2023/06/03 02:01:26;;;;;;;6.13;2.50;;;;;;;;;;5047340;28;20259;-89
2023/06/03 02:03:53;;;;;;;6.63;2.25;;;;;;;;;;5046039;28;20197;-89
2023/06/03 02:06:21;;;;;;;4.00;1.98;;;;;;;;;;5043612;28;20224;-89
2023/06/03 02:08:48;;;;;;;3.83;2.10;;;;;;;;;;5049129;28;20214;-89
2023/06/03 02:11:15;;;;;;;3.65;2.35;;;;;;;;;;5040392;28;20231;-89
2023/06/03 02:13:42;;;;;;;3.90;2.70;;;;;;;;;;5047995;28;20291;-90
2023/06/03 02:16:12;;;;;;;4.85;2.05;;;;;;;;;;5047608;28;20200;-89
2023/06/03 02:18:39;;;;;;;5.93;2.40;;;;;;;;;;5047274;28;20239;-90
2023/06/03 02:21:06;;;;;;;5.95;2.90;;;;;;;;;;5051973;28;20212;-90
2023/06/03 02:23:33;;;;;;;4.40;2.35;;;;;;;;;;5049235;28;20200;-89
2023/06/03 02:26:01;;;;;;;6.22;2.55;;;;;;;;;;5048239;28;20314;-89
2023/06/03 02:28:29;;;;;;;5.13;2.28;;;;;;;;;;5044221;28;20231;-90
2023/06/03 02:30:56;;;;;;;4.78;2.30;;;;;;;;;;5049260;28;20203;-89
2023/06/03 02:33:25;;;;;;;6.18;2.38;;;;;;;;;;5052593;28;20294;-90
2023/06/03 02:35:53;;;;;;;4.70;2.25;;;;;;;;;;5037518;28;20235;-89
2023/06/03 02:38:20;;;;;;;4.95;2.67;;;;;;;;;;5050478;28;20223;-90
2023/06/03 02:40:47;;;;;;;3.47;2.53;;;;;;;;;;5052269;28;20313;-90
2023/06/03 02:43:14;;;;;;;4.57;2.60;;;;;;;;;;5044600;28;20234;-89
2023/06/03 02:45:42;;;;;;;4.55;2.20;;;;;;;;;;5048346;28;20211;-89
2023/06/03 02:48:09;;;;;;;5.75;2.40;;;;;;;;;;5045045;28;20259;-89
2023/06/03 02:50:38;;;;;;;4.97;2.53;;;;;;;;;;5049767;28;20268;-89
2023/06/03 02:53:05;;;;;;;3.08;2.40;;;;;;;;;;5048814;28;20195;-89
2023/06/03 02:55:33;;;;;;;5.28;2.58;;;;;;;;;;5046613;28;20263;-90
2023/06/03 02:58:01;;;;;;;4.30;2.28;;;;;;;;;;5046418;28;20250;-89
2023/06/03 03:00:28;;;;;;;5.03;2.28;;;;;;;;;;5047050;28;20212;-90
2023/06/03 03:02:55;;;;;;;4.68;2.20;;;;;;;;;;5038074;28;20212;-90
2023/06/03 03:05:24;;;;;;;3.60;2.25;;;;;;;;;;5045659;28;20435;-89
2023/06/03 03:07:54;;;;;;;5.18;2.38;;;;;;;;;;5041209;28;20230;-89
2023/06/03 03:10:21;;;;;;;4.43;2.15;;;;;;;;;;5048768;28;20204;-89
2023/06/03 03:12:48;;;;;;;4.90;2.42;;;;;;;;;;5044680;28;20278;-89
2023/06/03 03:15:15;;;;;;;5.80;2.47;;;;;;;;;;5045557;28;20290;-90
2023/06/03 03:17:43;;;;;;;4.35;2.70;;;;;;;;;;5043653;28;20267;-89
2023/06/03 03:20:10;;;;;;;4.90;2.50;;;;;;;;;;5051107;28;20286;-89
2023/06/03 03:22:41;;;;;;;5.43;2.50;;;;;;;;;;5051951;28;20290;-89
2023/06/03 03:25:10;;;;;;;4.82;2.40;;;;;;;;;;5049324;28;20295;-89
2023/06/03 03:27:37;;;;;;;8.07;2.40;;;;;;;;;;5048006;28;20223;-90
2023/06/03 03:30:06;;;;;;;4.10;2.45;;;;;;;;;;5045189;28;20219;-90
2023/06/03 03:32:34;;;;;;;5.38;2.60;;;;;;;;;;5049925;28;20261;-89
2023/06/03 03:35:13;;;;;;;4.45;2.30;;;;;;;;;;5056002;28;20203;-90
2023/06/03 03:37:40;;;;;;;5.95;2.75;;;;;;;;;;5048251;28;20211;-89
2023/06/03 03:40:13;;;;;;;3.97;2.40;;;;;;;;;;5055752;28;20203;-89
2023/06/03 03:42:40;;;;;;;6.72;2.50;;;;;;;;;;5047233;28;20256;-90
2023/06/03 03:45:08;;;;;;;6.43;2.60;;;;;;;;;;5044432;28;20292;-89
2023/06/03 03:47:36;;;;;;;4.93;2.53;;;;;;;;;;5049708;28;20227;-89
2023/06/03 03:50:03;;;;;;;4.72;2.42;;;;;;;;;;5055068;28;20204;-90
2023/06/03 03:52:31;;;;;;;6.07;2.35;;;;;;;;;;5054818;28;20209;-89
2023/06/03 03:55:01;;;;;;;8.30;2.40;;;;;;;;;;5051937;28;20199;-89
2023/06/03 03:57:31;;;;;;;5.97;2.50;;;;;;;;;;5055210;28;20229;-89
2023/06/03 03:59:59;;;;;;;4.80;2.15;;;;;;;;;;5053795;28;20210;-90
2023/06/03 04:02:27;;;;;;;4.40;2.28;;;;;;;;;;5040744;28;20200;-89
2023/06/03 04:04:54;;;;;;;7.10;2.38;;;;;;;;;;5055735;28;20217;-90
2023/06/03 04:07:21;;;;;;;4.80;2.47;;;;;;;;;;5051583;28;20220;-90
2023/06/03 04:09:49;;;;;;;6.60;2.50;;;;;;;;;;5046296;28;20195;-89
2023/06/03 04:12:29;;;;;;;3.90;2.28;;;;;;;;;;5049549;28;20202;-90
2023/06/03 04:14:58;;;;;;;4.95;2.53;;;;;;;;;;5052852;28;20199;-90
2023/06/03 04:17:26;;;;;;;7.50;2.47;;;;;;;;;;5049334;28;20296;-90
2023/06/03 04:19:55;;;;;;;4.70;2.38;;;;;;;;;;5050629;28;20227;-90
2023/06/03 04:22:23;;;;;;;5.18;2.42;;;;;;;;;;5049949;28;20218;-89
2023/06/03 04:24:54;;;;;;;4.35;2.50;;;;;;;;;;5046333;28;20195;-89
2023/06/03 04:27:21;;;;;;;4.05;2.60;;;;;;;;;;5050807;28;20226;-90
2023/06/03 04:29:48;;;;;;;3.67;2.50;;;;;;;;;;5054605;28;20287;-90
2023/06/03 04:32:17;;;;;;;5.25;2.53;;;;;;;;;;5047049;28;20238;-90
2023/06/03 04:34:51;;;;;;;4.53;2.60;;;;;;;;;;5050730;28;20207;-90
2023/06/03 04:37:18;;;;;;;4.35;2.50;;;;;;;;;;5054270;28;20294;-90
2023/06/03 04:39:46;;;;;;;4.72;2.33;;;;;;;;;;5051744;28;20210;-90
2023/06/03 04:42:13;;;;;;;6.10;2.58;;;;;;;;;;5048353;28;20216;-89
2023/06/03 04:44:41;;;;;;;6.15;2.45;;;;;;;;;;5051338;28;20211;-89
2023/06/03 04:47:10;;;;;;;5.53;2.90;;;;;;;;;;5047461;28;20224;-90
2023/06/03 04:49:39;;;;;;;5.55;2.45;;;;;;;;;;5049140;28;20232;-89
2023/06/03 04:52:09;;;;;;;4.07;2.47;;;;;;;;;;5049254;28;20238;-89
2023/06/03 04:54:37;;;;;;;4.65;2.50;;;;;;;;;;5052123;28;20212;-89
2023/06/03 04:57:04;;;;;;;6.15;2.63;;;;;;;;;;5047635;28;20218;-90
2023/06/03 04:59:31;;;;;;;3.05;2.33;;;;;;;;;;5054480;28;20199;-90
2023/06/03 05:01:58;;;;;;;3.80;2.65;;;;;;;;;;5042970;28;20208;-90
2023/06/03 05:04:29;;;;;;;4.35;2.70;;;;;;;;;;5044482;28;20210;-90
2023/06/03 05:07:00;;;;;;;4.18;2.50;;;;;;;;;;5047535;28;20215;-90
2023/06/03 05:09:27;;;;;;;2.88;2.25;;;;;;;;;;5042289;28;20208;-90
2023/06/03 05:11:56;;;;;;;3.45;2.50;;;;;;;;;;5040019;28;20203;-89
2023/06/03 05:14:23;;;;;;;6.00;2.60;;;;;;;;;;5051502;28;20226;-90
2023/06/03 05:16:51;;;;;;;5.68;2.67;;;;;;;;;;5053930;28;20207;-90
2023/06/03 05:19:18;;;;;;;3.80;2.80;;;;;;;;;;5052776;28;20237;-90
2023/06/03 05:21:45;;;;;;;7.55;2.80;;;;;;;;;;5049362;28;20195;-90
2023/06/03 05:24:14;;;;;;;4.85;2.55;;;;;;;;;;5052755;28;20203;-90
2023/06/03 05:26:41;;;;;;;6.25;2.97;;;;;;;;;;5047795;28;20199;-89
2023/06/03 05:29:08;;;;;;;4.72;2.40;;;;;;;;;;5048767;28;20203;-90
2023/06/03 05:31:35;;;;;;;4.70;2.80;;;;;;;;;;5050925;28;20207;-90
2023/06/03 05:34:02;;;;;;;5.00;2.92;;;;;;;;;;5040771;28;20217;-90
2023/06/03 05:36:30;;;;;;;5.18;2.80;;;;;;;;;;5038619;28;20209;-89
2023/06/03 05:38:57;;;;;;;4.75;2.58;;;;;;;;;;5052918;28;20207;-89
2023/06/03 05:41:26;;;;;;;7.60;2.80;;;;;;;;;;5053608;28;20204;-89
2023/06/03 05:43:53;;;;;;;4.80;2.63;;;;;;;;;;5053865;28;20286;-89
2023/06/03 05:46:20;;;;;;;4.47;2.80;;;;;;;;;;5048187;28;20294;-89
2023/06/03 05:48:48;;;;;;;5.97;2.70;;;;;;;;;;5045114;28;20251;-89
2023/06/03 05:51:15;;;;;;;3.90;2.28;;;;;;;;;;5048274;28;20205;-89
2023/06/03 05:53:43;;;;;;;6.20;2.72;;;;;;;;;;5046303;28;20214;-89
2023/06/03 05:56:11;;;;;;;3.50;2.53;;;;;;;;;;5039454;28;20200;-89
2023/06/03 05:58:40;;;;;;;5.88;2.67;;;;;;;;;;5047539;28;20214;-89
2023/06/03 06:01:07;;;;;;;5.88;2.70;;;;;;;;;;5047590;28;20213;-89
2023/06/03 06:03:35;;;;;;;5.63;2.80;;;;;;;;;;5045155;28;20211;-89
2023/06/03 06:06:02;;;;;;;5.47;2.70;;;;;;;;;;5040729;28;20199;-89
2023/06/03 06:08:29;;;;;;;3.42;2.47;;;;;;;;;;5051039;28;20310;-89
2023/06/03 06:10:56;;;;;;;4.18;2.75;;;;;;;;;;5046029;28;20207;-90
2023/06/03 06:13:24;;;;;;;6.90;2.65;;;;;;;;;;5049727;28;20231;-90
2023/06/03 06:16:00;;;;;;;5.13;2.60;;;;;;;;;;5048045;28;20196;-89
2023/06/03 06:18:29;;;;;;;6.28;2.85;;;;;;;;;;5049204;28;20330;-90
2023/06/03 06:20:56;;;;;;;6.00;3.15;;;;;;;;;;5049132;28;20210;-89
2023/06/03 06:23:23;;;;;;;6.05;2.60;;;;;;;;;;5051967;28;20291;-90
2023/06/03 06:25:51;;;;;;;4.10;2.42;;;;;;;;;;5045835;28;20224;-90
2023/06/03 06:28:19;;;;;;;5.93;2.72;;;;;;;;;;5046773;28;20307;-89
2023/06/03 06:30:46;;;;;;;5.00;2.65;;;;;;;;;;5052175;28;20203;-90
2023/06/03 06:33:16;;;;;;;7.43;2.95;;;;;;;;;;5040795;28;20231;-90
2023/06/03 06:35:43;;;;;;;3.45;2.53;;;;;;;;;;5050207;28;20329;-90
2023/06/03 06:38:11;;;;;;;5.82;2.53;;;;;;;;;;5044835;28;20200;-90
2023/06/03 06:40:39;;;;;;;4.22;2.55;;;;;;;;;;5048825;28;20207;-89
2023/06/03 06:43:07;;;;;;;5.03;3.00;;;;;;;;;;5052516;28;20203;-90
2023/06/03 06:45:35;;;;;;;3.72;2.33;;;;;;;;;;5049911;28;20200;-89
2023/06/03 06:48:05;;;;;;;4.68;2.72;;;;;;;;;;5047923;28;20275;-90
2023/06/03 06:50:46;;;;;;;6.25;2.67;;;;;;;;;;5045848;28;20204;-90
2023/06/03 06:53:13;;;;;;;5.80;2.53;;;;;;;;;;5044904;28;20208;-90
2023/06/03 06:55:43;;;;;;;6.10;2.90;;;;;;;;;;5048524;28;20287;-90
2023/06/03 06:58:11;;;;;;;5.00;2.75;;;;;;;;;;5050126;28;20214;-89
2023/06/03 07:00:38;;;;;;;4.75;2.80;;;;;;;;;;5051023;28;20252;-90
2023/06/03 07:03:07;;;;;;;5.35;2.90;;;;;;;;;;5048411;28;20210;-90
2023/06/03 07:05:34;;;;;;;5.57;2.88;;;;;;;;;;5049546;28;20204;-90
2023/06/03 07:08:03;;;;;;;4.88;2.80;;;;;;;;;;5051986;28;20302;-89
2023/06/03 07:10:30;;;;;;;4.57;2.75;;;;;;;;;;5052648;28;20211;-89
2023/06/03 07:12:58;;;;;;;6.22;2.88;;;;;;;;;;5050922;28;20196;-89
2023/06/03 07:15:25;;;;;;;5.22;2.88;;;;;;;;;;5047160;28;20223;-90
2023/06/03 07:17:53;;;;;;;4.38;2.65;;;;;;;;;;5043171;28;20200;-90
2023/06/03 07:20:22;;;;;;;4.97;2.78;;;;;;;;;;5051617;28;20204;-89
2023/06/03 07:22:49;;;;;;;4.32;2.67;;;;;;;;;;5048889;28;20202;-89
2023/06/03 07:25:26;;;;;;;4.05;2.60;;;;;;;;;;5048446;28;20235;-89
2023/06/03 07:27:53;;;;;;;4.90;3.03;;;;;;;;;;5050624;28;20283;-89
2023/06/03 07:30:20;;;;;;;5.20;2.65;;;;;;;;;;5047152;28;20307;-89
2023/06/03 07:32:48;;;;;;;6.88;2.60;;;;;;;;;;5055683;28;20286;-89
2023/06/03 07:35:20;;;;;;;6.07;2.92;;;;;;;;;;5056171;28;20219;-89
2023/06/03 07:37:48;;;;;;;5.95;2.90;;;;;;;;;;5040108;28;20216;-89
2023/06/03 07:40:16;;;;;;;4.30;2.75;;;;;;;;;;5041491;28;20269;-89
2023/06/03 07:42:46;;;;;;;5.60;2.80;;;;;;;;;;5049532;28;20199;-89
2023/06/03 07:45:14;;;;;;;4.63;2.63;;;;;;;;;;5048870;28;20195;-90
2023/06/03 07:47:42;;;;;;;3.58;2.78;;;;;;;;;;5052783;28;20230;-89
2023/06/03 07:50:20;;;;;;;4.50;2.63;;;;;;;;;;5039388;28;20291;-89
2023/06/03 07:52:47;;;;;;;4.80;3.05;;;;;;;;;;5042708;28;20211;-89
2023/06/03 07:55:14;;;;;;;8.45;2.75;;;;;;;;;;5047883;28;20207;-89
2023/06/03 07:57:46;;;;;;;3.67;2.80;;;;;;;;;;5047334;28;20206;-89
2023/06/03 08:00:18;;;;;;;6.45;3.00;;;;;;;;;;5046491;28;20203;-89
2023/06/03 08:02:45;;;;;;;4.70;2.95;;;;;;;;;;5051322;28;20199;-89
2023/06/03 08:05:12;;;;;;;6.03;2.90;;;;;;;;;;5051922;28;20196;-90
2023/06/03 08:07:40;;;;;;;7.90;2.88;;;;;;;;;;5043197;28;20227;-90
2023/06/03 08:10:09;;;;;;;7.15;2.85;;;;;;;;;;5054950;28;20242;-90
2023/06/03 08:12:36;;;;;;;3.55;2.50;;;;;;;;;;5054421;28;20209;-90
2023/06/03 08:15:04;;;;;;;5.97;3.05;;;;;;;;;;5045952;28;20202;-89
2023/06/03 08:17:39;;;;;;;4.30;2.63;;;;;;;;;;5048424;28;20200;-89
2023/06/03 08:20:08;;;;;;;4.43;2.72;;;;;;;;;;5048571;28;20203;-89
2023/06/03 08:22:38;;;;;;;5.13;3.00;;;;;;;;;;5052107;28;20337;-89
2023/06/03 08:25:05;;;;;;;5.25;2.83;;;;;;;;;;5045412;28;20200;-89
2023/06/03 08:27:32;;;;;;;3.67;2.60;;;;;;;;;;5047464;28;20215;-89
2023/06/03 08:30:03;;;;;;;5.45;2.90;;;;;;;;;;5051299;28;20202;-89
2023/06/03 08:32:30;;;;;;;4.18;2.35;;;;;;;;;;5046500;28;20256;-89
2023/06/03 08:34:59;;;;;;;5.45;2.97;;;;;;;;;;5044537;28;20208;-89
2023/06/03 08:37:26;;;;;;;3.92;2.60;;;;;;;;;;5042875;28;20196;-89
2023/06/03 08:39:54;;;;;;;5.60;2.90;;;;;;;;;;5045942;28;20197;-89
2023/06/03 08:42:23;;;;;;;8.25;2.95;;;;;;;;;;5042097;28;20208;-89
2023/06/03 08:44:58;;;;;;;5.15;2.88;;;;;;;;;;5044668;28;20207;-89
2023/06/03 08:47:29;;;;;;;5.70;2.78;;;;;;;;;;5040712;28;20295;-90
2023/06/03 08:50:01;;;;;;;5.10;2.78;;;;;;;;;;5046962;28;20200;-89
2023/06/03 08:52:32;;;;;;;4.20;2.72;;;;;;;;;;5047307;28;20206;-90
2023/06/03 08:55:01;;;;;;;4.97;2.40;;;;;;;;;;5050765;28;20206;-88
2023/06/03 08:57:29;;;;;;;6.20;2.67;;;;;;;;;;5054860;28;20207;-89
2023/06/03 08:59:57;;;;;;;4.82;2.63;;;;;;;;;;5051003;28;20290;-88
2023/06/03 09:02:27;;;;;;;5.85;2.85;;;;;;;;;;5051250;28;20203;-88
2023/06/03 09:04:54;;;;;;;5.55;2.78;;;;;;;;;;5046670;28;20227;-89
2023/06/03 09:07:22;;;;;;;3.42;2.58;;;;;;;;;;5052515;28;20200;-88
2023/06/03 09:09:52;;;;;;;7.80;2.65;;;;;;;;;;5033972;28;20227;-89
2023/06/03 09:12:19;;;;;;;3.97;2.60;;;;;;;;;;5051937;28;20207;-89
2023/06/03 09:14:47;;;;;;;4.88;2.60;;;;;;;;;;5043158;28;20203;-88
2023/06/03 09:17:15;;;;;;;6.20;2.72;;;;;;;;;;5044075;28;20200;-89
2023/06/03 09:19:42;;;;;;;5.75;2.55;;;;;;;;;;5053702;28;20294;-89
2023/06/03 09:22:10;;;;;;;4.47;2.40;;;;;;;;;;5053796;28;20218;-89
2023/06/03 09:24:37;;;;;;;3.65;2.42;;;;;;;;;;5041296;28;20227;-88
2023/06/03 09:27:06;;;;;;;3.60;2.40;;;;;;;;;;5046795;28;20212;-89
2023/06/03 09:29:33;;;;;;;3.20;2.30;;;;;;;;;;5047431;28;20219;-88
2023/06/03 09:32:01;;;;;;;6.78;2.45;;;;;;;;;;5042137;28;20199;-89
2023/06/03 09:34:28;;;;;;;5.47;2.50;;;;;;;;;;5053667;28;20208;-89
2023/06/03 09:36:55;;;;;;;4.72;2.53;;;;;;;;;;5053403;28;20213;-89
2023/06/03 09:39:33;;;;;;;3.22;2.35;;;;;;;;;;5049315;28;20311;-89
2023/06/03 09:42:01;;;;;;;6.53;2.60;;;;;;;;;;5047711;28;20195;-89
2023/06/03 09:44:38;;;;;;;6.03;2.80;;;;;;;;;;5042704;28;20290;-89
2023/06/03 09:47:05;;;;;;;5.50;2.70;;;;;;;;;;5051991;28;20203;-89
2023/06/03 09:49:33;;;;;;;3.38;2.40;;;;;;;;;;5044043;28;20234;-89
2023/06/03 09:52:00;;;;;;;4.88;2.60;;;;;;;;;;5040025;28;20210;-89
2023/06/03 09:54:27;;;;;;;5.10;2.50;;;;;;;;;;5045442;28;20203;-89
2023/06/03 09:56:55;;;;;;;3.92;2.40;;;;;;;;;;5051330;28;20224;-89
2023/06/03 09:59:23;;;;;;;2.88;2.50;;;;;;;;;;5048170;28;20200;-89
2023/06/03 10:01:53;;;;;;;3.78;2.50;;;;;;;;;;5047867;28;20245;-91
2023/06/03 10:04:22;;;;;;;5.38;2.75;;;;;;;;;;5050146;28;20204;-91
2023/06/03 10:06:49;;;;;;;7.53;2.72;;;;;;;;;;5049626;28;20204;-90
2023/06/03 10:09:20;;;;;;;5.25;2.50;;;;;;;;;;5045871;28;20219;-90
2023/06/03 10:11:48;;;;;;;4.70;2.38;;;;;;;;;;5049962;28;20199;-89
2023/06/03 10:14:17;;;;;;;4.22;2.55;;;;;;;;;;5046527;28;20199;-90
2023/06/03 10:17:02;;;;;;;6.00;2.75;;;;;;;;;;5048727;28;20199;-90
2023/06/03 10:19:33;;;;;;;3.67;2.10;;;;;;;;;;5047088;28;20242;-89
2023/06/03 10:22:00;;;;;;;4.85;2.42;;;;;;;;;;5047022;28;20199;-89
2023/06/03 10:24:28;;;;;;;4.22;2.55;;;;;;;;;;5050666;28;20200;-89
2023/06/03 10:26:56;;;;;;;4.65;2.83;;;;;;;;;;5046562;28;20196;-90
2023/06/03 10:29:23;;;;;;;3.65;2.35;;;;;;;;;;5045880;28;20247;-90
2023/06/03 10:31:51;;;;;;;4.93;2.50;;;;;;;;;;5045917;28;20222;-89
2023/06/03 10:34:19;;;;;;;6.25;2.45;;;;;;;;;;5045794;28;20211;-90
2023/06/03 10:36:51;;;;;;;3.88;2.20;;;;;;;;;;5041180;28;20206;-89
2023/06/03 10:39:18;;;;;;;4.32;2.63;;;;;;;;;;5052030;28;20269;-89
2023/06/03 10:41:46;;;;;;;6.38;2.72;;;;;;;;;;5052087;28;20298;-89
2023/06/03 10:44:13;;;;;;;4.38;2.50;;;;;;;;;;5055466;28;20278;-89
2023/06/03 10:46:43;;;;;;;6.28;2.60;;;;;;;;;;5045028;28;20204;-89
2023/06/03 10:49:11;;;;;;;6.38;2.60;;;;;;;;;;5044960;28;20216;-89
2023/06/03 10:51:48;;;;;;;3.55;2.40;;;;;;;;;;5041622;28;20221;-89
2023/06/03 10:54:30;;;;;;;4.10;2.60;;;;;;;;;;5041736;28;20208;-89
2023/06/03 10:57:00;;;;;;;4.82;2.60;;;;;;;;;;5055346;28;20227;-89
2023/06/03 10:59:29;;;;;;;4.57;2.60;;;;;;;;;;5052606;28;20211;-89
2023/06/03 11:01:57;;;;;;;4.90;2.45;;;;;;;;;;5055707;28;20213;-89
2023/06/03 11:04:24;;;;;;;7.32;2.50;;;;;;;;;;5050997;28;20210;-89
2023/06/03 11:06:52;;;;;;;3.67;2.30;;;;;;;;;;5052104;28;20239;-89
2023/06/03 11:09:32;;;;;;;4.15;2.40;;;;;;;;;;5054879;28;20234;-89
2023/06/03 11:12:03;;;;;;;4.38;2.40;;;;;;;;;;5045660;28;20208;-89
2023/06/03 11:14:49;;;;;;;4.70;2.58;;;;;;;;;;5054098;28;20207;-89
2023/06/03 11:17:18;;;;;;;3.85;2.83;;;;;;;;;;5056166;28;20210;-93
2023/06/03 11:19:49;;;;;;;5.70;2.58;;;;;;;;;;5050811;28;20247;-91
2023/06/03 11:22:31;;;;;;;4.90;2.58;;;;;;;;;;5056509;28;20204;-88
2023/06/03 11:25:00;;;;;;;5.25;2.58;;;;;;;;;;5044587;28;20219;-88
2023/06/03 11:27:28;;;;;;;4.28;2.42;;;;;;;;;;5055470;28;20203;-88
2023/06/03 11:29:57;;;;;;;2.58;2.30;;;;;;;;;;5050060;28;20311;-88
2023/06/03 11:32:24;;;;;;;6.90;2.50;;;;;;;;;;5046462;28;20199;-88
2023/06/03 11:34:52;;;;;;;4.30;2.42;;;;;;;;;;5046560;28;20199;-88
2023/06/03 11:37:20;;;;;;;3.50;2.75;;;;;;;;;;5049767;28;20310;-95
2023/06/03 11:40:04;;;;;;;5.22;2.92;;;;;;;;;;5043726;28;20208;-90
2023/06/03 11:42:31;;;;;;;4.00;2.42;;;;;;;;;;5042403;28;20219;-89
2023/06/03 11:45:21;;;;;;;5.35;2.80;;;;;;;;;;5050697;28;20215;-89
2023/06/03 11:47:49;;;;;;;2.60;2.40;;;;;;;;;;5046062;28;20214;-89
2023/06/03 11:50:16;;;;;;;3.80;2.72;;;;;;;;;;5043283;28;20259;-89
2023/06/03 11:52:43;;;;;;;7.28;3.22;;;;;;;;;;5040256;28;20204;-89
2023/06/03 11:55:12;;;;;;;3.55;2.80;;;;;;;;;;5041624;28;20215;-89
2023/06/03 11:57:39;;;;;;;5.40;2.45;;;;;;;;;;5050716;28;20209;-89
2023/06/03 12:00:09;;;;;;;4.63;2.50;;;;;;;;;;5053405;28;20246;-90
2023/06/03 12:02:37;;;;;;;3.80;2.70;;;;;;;;;;5039736;28;20203;-89
2023/06/03 12:05:05;;;;;;;7.07;3.25;;;;;;;;;;5051812;28;20216;-90
2023/06/03 12:07:32;;;;;;;6.45;2.55;;;;;;;;;;5050972;28;20204;-89
2023/06/03 12:10:00;;;;;;;4.43;2.63;;;;;;;;;;5050038;28;20224;-89
2023/06/03 12:12:28;;;;;;;3.95;2.97;;;;;;;;;;5051705;28;20233;-91
2023/06/03 12:14:57;;;;;;;5.25;2.88;;;;;;;;;;5049559;28;20200;-91
2023/06/03 12:17:26;;;;;;;5.90;2.70;;;;;;;;;;5050982;28;20200;-90
2023/06/03 12:19:53;;;;;;;3.28;2.38;;;;;;;;;;5052128;28;20244;-91
2023/06/03 12:22:22;;;;;;;2.90;2.40;;;;;;;;;;5047962;28;20195;-92
2023/06/03 12:24:49;;;;;;;3.08;2.70;;;;;;;;;;5037862;28;20211;-91
2023/06/03 12:27:17;;;;;;;3.33;2.88;;;;;;;;;;5052561;28;20203;-91
2023/06/03 12:29:47;;;;;;;7.25;2.80;;;;;;;;;;5052639;28;20289;-91
2023/06/03 12:32:15;;;;;;;4.38;2.60;;;;;;;;;;5051167;28;20230;-91
2023/06/03 12:34:43;;;;;;;5.97;2.65;;;;;;;;;;5048428;28;20207;-91
2023/06/03 12:37:11;;;;;;;3.05;2.65;;;;;;;;;;5055178;28;20207;-91
2023/06/03 12:39:49;;;;;;;6.20;2.90;;;;;;;;;;5050407;28;20226;-91
2023/06/03 12:42:17;;;;;;;8.55;3.00;;;;;;;;;;5045675;28;20203;-91
2023/06/03 12:44:50;;;;;;;6.15;3.10;;;;;;;;;;5046111;28;20195;-91
2023/06/03 12:47:18;;;;;;;4.80;2.92;;;;;;;;;;5049469;28;20294;-91
2023/06/03 12:49:46;;;;;;;2.80;2.60;;;;;;;;;;5062472;28;20295;-91
2023/06/03 12:52:14;;;;;;;5.32;2.95;;;;;;;;;;5054351;28;20268;-92
2023/06/03 12:54:42;;;;;;;5.93;2.95;;;;;;;;;;5053268;28;20214;-91
2023/06/03 12:57:09;;;;;;;3.30;2.95;;;;;;;;;;5051195;28;20206;-91
2023/06/03 12:59:38;;;;;;;3.97;3.08;;;;;;;;;;5054442;28;20220;-91
2023/06/03 13:02:07;;;;;;;4.75;3.20;;;;;;;;;;5053437;28;20353;-92
2023/06/03 13:04:34;;;;;;;4.60;2.88;;;;;;;;;;5049724;28;20277;-91
2023/06/03 13:07:02;;;;;;;5.05;2.80;;;;;;;;;;5047230;28;20200;-92
2023/06/03 13:09:29;;;;;;;7.00;2.88;;;;;;;;;;5042938;28;20215;-91
2023/06/03 13:11:56;;;;;;;5.82;3.30;;;;;;;;;;5052846;28;20200;-91
2023/06/03 13:14:23;;;;;;;4.57;2.92;;;;;;;;;;5041989;28;20211;-91
2023/06/03 13:16:51;;;;;;;4.53;2.90;;;;;;;;;;5056144;28;20203;-90
2023/06/03 13:19:19;;;;;;;4.07;2.60;;;;;;;;;;5049704;28;20247;-90
2023/06/03 13:21:46;;;;;;;6.65;3.03;;;;;;;;;;5039789;28;20211;-91
2023/06/03 13:24:14;;;;;;;4.63;3.20;;;;;;;;;;5047070;28;20204;-92
2023/06/03 13:26:41;;;;;;;4.15;3.17;;;;;;;;;;5051481;28;20208;-91
2023/06/03 13:29:08;;;;;;;6.53;3.15;;;;;;;;;;5047210;28;20214;-91
2023/06/03 13:31:35;;;;;;;4.80;2.85;;;;;;;;;;5052702;28;20214;-91
2023/06/03 13:34:03;;;;;;;5.50;2.97;;;;;;;;;;5044503;28;20205;-91
2023/06/03 13:36:31;;;;;;;4.57;3.00;;;;;;;;;;5050259;28;20218;-93
2023/06/03 13:38:58;;;;;;;6.53;3.08;;;;;;;;;;5046642;28;20212;-91
2023/06/03 13:41:26;;;;;;;5.05;3.30;;;;;;;;;;5048653;28;20318;-91
2023/06/03 13:43:53;;;;;;;3.80;2.85;;;;;;;;;;5052251;28;20196;-91
2023/06/03 13:46:20;;;;;;;3.58;3.00;;;;;;;;;;5050426;28;20287;-91
2023/06/03 13:48:48;;;;;;;5.43;2.90;;;;;;;;;;5050350;28;20238;-91
2023/06/03 13:51:15;;;;;;;4.18;3.10;;;;;;;;;;5049695;28;20247;-91
2023/06/03 13:53:43;;;;;;;4.15;3.10;;;;;;;;;;5051150;28;20294;-92
2023/06/03 13:56:11;;;;;;;5.10;3.20;;;;;;;;;;5049121;28;20211;-92
2023/06/03 13:58:38;;;;;;;4.40;3.20;;;;;;;;;;5053663;28;20203;-91
2023/06/03 14:01:05;;;;;;;4.07;2.80;;;;;;;;;;5052159;28;20218;-91
2023/06/03 14:03:32;;;;;;;3.45;3.15;;;;;;;;;;5045488;28;20215;-91
2023/06/03 14:06:00;;;;;;;3.90;3.13;;;;;;;;;;5042093;28;20288;-91
2023/06/03 14:08:28;;;;;;;6.57;3.28;;;;;;;;;;5042147;28;20318;-91
2023/06/03 14:10:57;;;;;;;5.43;3.08;;;;;;;;;;5049395;28;20204;-91
2023/06/03 14:13:24;;;;;;;5.53;3.17;;;;;;;;;;5042823;28;20227;-91
2023/06/03 14:15:51;;;;;;;5.13;3.10;;;;;;;;;;5042657;28;20211;-92
2023/06/03 14:18:19;;;;;;;4.55;3.00;;;;;;;;;;5045727;28;20231;-91
2023/06/03 14:20:46;;;;;;;4.45;2.80;;;;;;;;;;5042144;28;20311;-92
2023/06/03 14:23:13;;;;;;;5.22;2.80;;;;;;;;;;5042297;28;20295;-92
2023/06/03 14:25:41;;;;;;;4.65;3.20;;;;;;;;;;5052829;28;20291;-93
2023/06/03 14:28:09;;;;;;;3.40;3.00;;;;;;;;;;5053100;28;20204;-92
2023/06/03 14:30:37;;;;;;;5.30;3.15;;;;;;;;;;5052971;28;20290;-92
2023/06/03 14:33:04;;;;;;;3.95;2.97;;;;;;;;;;5043937;28;20218;-93
2023/06/03 14:35:31;;;;;;;3.97;3.17;;;;;;;;;;5052808;28;20203;-92
2023/06/03 14:37:58;;;;;;;4.72;3.15;;;;;;;;;;5053185;28;20286;-91
2023/06/03 14:40:26;;;;;;;6.95;3.42;;;;;;;;;;5052120;28;20311;-92
2023/06/03 14:42:53;;;;;;;3.20;2.90;;;;;;;;;;5043589;28;20283;-92
2023/06/03 14:45:22;;;;;;;4.35;2.90;;;;;;;;;;5047825;28;20295;-91
2023/06/03 14:47:49;;;;;;;6.75;3.35;;;;;;;;;;5048070;28;20290;-92
2023/06/03 14:50:16;;;;;;;3.63;2.72;;;;;;;;;;5048007;28;20208;-92